Time;durP1;ratioP1;P1;durP2;ratioP2;P2;SDS_P1;SDS_P2;PMS_P1;PMS_P2;Temp;Humidity;BMP_temperature;BMP_pressure;BME280_temperature;BME280_humidity;BME280_pressure;Samples;Min_cycle;Max_cycle;Signal;HPM_P1;HPM_P2
2022/10/08 00:01:24;;;;;;;8.27;3.45;;;6.30;99.90;;;;;;5032403;28;20156;-49
2022/10/08 00:03:52;;;;;;;6.82;3.30;;;6.30;99.90;;;;;;5028831;28;20537;-50
2022/10/08 00:06:26;;;;;;;7.03;3.20;;;6.30;99.90;;;;;;5032367;28;20205;-55
2022/10/08 00:08:57;;;;;;;6.85;3.28;;;6.30;99.90;;;;;;5024712;28;20059;-51
2022/10/08 00:11:28;;;;;;;6.93;3.25;;;6.30;99.90;;;;;;5032515;28;20124;-49
2022/10/08 00:13:55;;;;;;;5.45;2.90;;;6.30;99.90;;;;;;5018883;28;20043;-53
2022/10/08 00:16:26;;;;;;;5.25;3.45;;;6.30;99.90;;;;;;5032330;28;20040;-53
2022/10/08 00:18:54;;;;;;;9.20;3.05;;;6.30;99.90;;;;;;5034358;28;20044;-56
2022/10/08 00:21:22;;;;;;;6.47;2.97;;;6.40;99.90;;;;;;5032561;28;20048;-50
2022/10/08 00:23:49;;;;;;;6.50;3.60;;;6.40;99.90;;;;;;5032374;28;20237;-55
2022/10/08 00:26:17;;;;;;;7.78;3.70;;;6.40;99.90;;;;;;5030394;28;20029;-51
2022/10/08 00:28:45;;;;;;;7.35;3.65;;;6.40;99.90;;;;;;5038867;28;20421;-55
2022/10/08 00:31:20;;;;;;;4.70;3.15;;;6.40;99.90;;;;;;5029219;28;20532;-49
2022/10/08 00:33:54;;;;;;;6.63;3.33;;;6.40;99.90;;;;;;5026190;28;20048;-52
2022/10/08 00:36:22;;;;;;;5.47;3.17;;;6.30;99.90;;;;;;5021218;28;20045;-55
2022/10/08 00:38:48;;;;;;;7.72;3.10;;;6.40;99.90;;;;;;5043433;28;20033;-52
2022/10/08 00:41:20;;;;;;;6.38;3.42;;;6.40;99.90;;;;;;5033670;28;20072;-49
2022/10/08 00:43:52;;;;;;;7.00;3.28;;;6.40;99.90;;;;;;5033163;28;20025;-51
2022/10/08 00:46:32;;;;;;;4.30;2.65;;;6.40;99.90;;;;;;5019435;28;20164;-53
2022/10/08 00:49:15;;;;;;;3.78;2.63;;;6.40;99.90;;;;;;5024902;28;20065;-49
2022/10/08 00:51:43;;;;;;;5.88;3.65;;;6.40;99.90;;;;;;5025023;28;20099;-50
2022/10/08 00:54:11;;;;;;;7.57;4.10;;;6.40;99.90;;;;;;5028936;28;20396;-52
2022/10/08 00:56:39;;;;;;;6.25;3.17;;;6.50;99.90;;;;;;5021214;28;20026;-53
2022/10/08 00:59:06;;;;;;;5.00;3.13;;;6.40;99.90;;;;;;5030673;28;20026;-51
2022/10/08 01:01:32;;;;;;;7.75;3.90;;;6.50;99.90;;;;;;5027311;28;20041;-52
2022/10/08 01:04:03;;;;;;;5.65;3.55;;;6.50;99.90;;;;;;5034134;28;20040;-52
2022/10/08 01:06:47;;;;;;;9.38;3.25;;;6.50;99.90;;;;;;5019675;28;20030;-51
2022/10/08 01:09:34;;;;;;;5.82;3.30;;;6.50;99.90;;;;;;5026222;28;20116;-50
2022/10/08 01:12:18;;;;;;;3.35;2.55;;;6.50;99.90;;;;;;5024724;28;20113;-55
2022/10/08 01:14:53;;;;;;;7.93;3.42;;;6.60;99.90;;;;;;5034169;28;20033;-53
2022/10/08 01:17:32;;;;;;;8.98;3.88;;;6.60;99.90;;;;;;5009097;28;20026;-58
2022/10/08 01:20:30;;;;;;;4.43;2.80;;;6.60;99.90;;;;;;5009129;28;20030;-47
2022/10/08 01:23:20;;;;;;;7.50;3.45;;;6.60;99.90;;;;;;5030196;28;20056;-50
2022/10/08 01:25:50;;;;;;;9.10;3.70;;;6.60;99.90;;;;;;5040833;28;20029;-56
2022/10/08 01:28:32;;;;;;;7.82;3.42;;;6.60;99.90;;;;;;5030161;28;20528;-53
2022/10/08 01:31:02;;;;;;;5.80;3.15;;;6.70;99.90;;;;;;5038958;28;20033;-49
2022/10/08 01:33:36;;;;;;;4.20;2.97;;;6.70;99.90;;;;;;5050052;28;20440;-52
2022/10/08 01:36:04;;;;;;;5.47;3.25;;;6.70;99.90;;;;;;5017541;28;20456;-52
2022/10/08 01:38:32;;;;;;;8.40;3.42;;;6.70;99.90;;;;;;5049565;28;20033;-57
2022/10/08 01:41:01;;;;;;;8.23;3.70;;;6.80;99.90;;;;;;5028383;28;20033;-52
2022/10/08 01:43:31;;;;;;;6.53;3.30;;;6.80;99.90;;;;;;5049642;28;20024;-54
2022/10/08 01:46:02;;;;;;;5.78;2.65;;;6.80;99.90;;;;;;5028214;28;20040;-48
2022/10/08 01:48:32;;;;;;;3.58;2.47;;;6.80;99.90;;;;;;5010197;28;20038;-50
2022/10/08 01:51:05;;;;;;;5.53;2.75;;;6.90;99.90;;;;;;5016571;28;20044;-50
2022/10/08 01:53:36;;;;;;;9.98;3.58;;;6.90;99.90;;;;;;5009974;28;20040;-50
2022/10/08 01:56:04;;;;;;;4.95;3.30;;;6.90;99.90;;;;;;5025114;28;20086;-52
2022/10/08 01:58:42;;;;;;;7.10;3.42;;;6.90;99.90;;;;;;5029628;28;20025;-48
2022/10/08 02:01:14;;;;;;;5.85;3.53;;;7.00;99.90;;;;;;5026553;28;20080;-48
2022/10/08 02:04:31;;;;;;;7.43;3.47;;;7.00;99.90;;;;;;5009777;28;20034;-49
2022/10/08 02:06:29;;;;;;;5.13;3.10;;;7.00;99.90;;;;;;5031202;28;20374;-51
2022/10/08 02:08:54;;;;;;;4.13;3.13;;;7.00;99.90;;;;;;5029454;28;20060;-51
2022/10/08 02:11:20;;;;;;;7.68;3.35;;;7.00;99.90;;;;;;5046438;28;20048;-48
2022/10/08 02:13:46;;;;;;;4.97;3.13;;;7.00;99.90;;;;;;5029457;28;20045;-51
2022/10/08 02:16:21;;;;;;;8.93;3.60;;;7.00;99.90;;;;;;5046134;28;20438;-51
2022/10/08 02:18:53;;;;;;;5.93;3.50;;;7.10;99.90;;;;;;5009384;28;20034;-49
2022/10/08 02:21:23;;;;;;;6.05;3.10;;;7.10;99.90;;;;;;5028013;28;20543;-51
2022/10/08 02:23:55;;;;;;;7.75;3.50;;;7.10;99.90;;;;;;5025229;28;20603;-48
2022/10/08 02:26:30;;;;;;;6.82;3.00;;;7.10;99.90;;;;;;5028069;28;20025;-48
2022/10/08 02:29:02;;;;;;;6.55;3.17;;;7.10;99.90;;;;;;5009439;28;20034;-50
2022/10/08 02:31:36;;;;;;;8.57;3.25;;;7.10;99.90;;;;;;5030193;28;20036;-52
2022/10/08 02:34:14;;;;;;;5.00;3.38;;;7.10;99.90;;;;;;5027433;28;20490;-54
2022/10/08 02:36:50;;;;;;;6.22;3.53;;;7.20;99.90;;;;;;5033948;28;20096;-53
2022/10/08 02:39:18;;;;;;;7.90;3.72;;;7.20;99.90;;;;;;5008913;28;20029;-50
2022/10/08 02:41:49;;;;;;;7.45;3.42;;;7.20;99.90;;;;;;5033086;28;20025;-48
2022/10/08 02:44:42;;;;;;;5.20;3.42;;;7.20;99.90;;;;;;5008915;28;20041;-49
2022/10/08 02:47:13;;;;;;;6.35;3.00;;;7.20;99.90;;;;;;5020402;28;20063;-49
2022/10/08 02:49:51;;;;;;;6.40;3.28;;;7.20;99.90;;;;;;5009048;28;20037;-49
2022/10/08 02:52:19;;;;;;;5.30;2.45;;;7.20;99.90;;;;;;5024328;28;20048;-52
2022/10/08 02:54:47;;;;;;;7.13;3.63;;;7.20;99.90;;;;;;5047936;28;20033;-53
2022/10/08 02:57:36;;;;;;;4.50;3.13;;;7.20;99.90;;;;;;5027255;28;20022;-61
2022/10/08 03:00:03;;;;;;;7.75;3.70;;;7.20;99.90;;;;;;5007370;28;20490;-54
2022/10/08 03:02:40;;;;;;;7.00;3.20;;;7.20;99.90;;;;;;5026749;28;20044;-54
2022/10/08 03:05:12;;;;;;;6.65;3.40;;;7.20;99.90;;;;;;5008695;28;20164;-53
2022/10/08 03:07:37;;;;;;;7.65;3.92;;;7.20;99.90;;;;;;5026707;28;20047;-51
2022/10/08 03:10:05;;;;;;;5.22;3.10;;;7.20;99.90;;;;;;5047588;28;20120;-54
2022/10/08 03:12:32;;;;;;;5.32;3.33;;;7.20;99.90;;;;;;5026776;28;20104;-51
2022/10/08 03:14:58;;;;;;;8.13;2.95;;;7.20;99.90;;;;;;5047815;28;20029;-52
2022/10/08 03:17:29;;;;;;;6.70;2.83;;;7.10;99.90;;;;;;5027011;28;20025;-53
2022/10/08 03:19:56;;;;;;;3.75;2.75;;;7.10;99.90;;;;;;5008868;28;20032;-51
2022/10/08 03:22:23;;;;;;;5.20;3.30;;;7.10;99.90;;;;;;5029490;28;20036;-51
2022/10/08 03:24:49;;;;;;;6.65;3.45;;;7.10;99.90;;;;;;5045157;28;20031;-51
2022/10/08 03:27:14;;;;;;;6.68;3.85;;;7.10;99.90;;;;;;5027022;28;20026;-55
2022/10/08 03:29:40;;;;;;;7.40;3.97;;;7.10;99.90;;;;;;5051244;28;20508;-49
2022/10/08 03:32:06;;;;;;;8.63;3.35;;;7.10;99.90;;;;;;5030968;28;20084;-52
2022/10/08 03:34:31;;;;;;;6.38;3.60;;;7.00;99.90;;;;;;5051365;28;20060;-54
2022/10/08 03:36:57;;;;;;;6.47;3.88;;;7.00;99.90;;;;;;5031273;28;20048;-53
2022/10/08 03:39:22;;;;;;;10.40;4.85;;;7.00;99.90;;;;;;5051319;28;20113;-54
2022/10/08 03:41:47;;;;;;;9.85;4.72;;;7.00;99.90;;;;;;5030861;28;20658;-52
2022/10/08 03:44:13;;;;;;;10.77;4.82;;;7.00;99.90;;;;;;5051276;28;20045;-55
2022/10/08 03:46:38;;;;;;;12.32;5.57;;;6.90;99.90;;;;;;5030692;28;20457;-53
2022/10/08 03:49:04;;;;;;;11.25;6.05;;;6.90;99.90;;;;;;5051115;28;20040;-54
2022/10/08 03:51:30;;;;;;;8.88;4.93;;;6.90;99.90;;;;;;5030682;28;20037;-54
2022/10/08 03:53:56;;;;;;;8.15;5.35;;;6.90;99.90;;;;;;5051135;28;20063;-53
2022/10/08 03:56:25;;;;;;;10.80;5.53;;;6.90;99.90;;;;;;5030362;28;20061;-54
2022/10/08 03:58:55;;;;;;;9.65;5.50;;;6.80;99.90;;;;;;5051303;28;20033;-56
2022/10/08 04:01:21;;;;;;;14.93;5.78;;;6.80;99.90;;;;;;5030570;28;20088;-54
2022/10/08 04:03:47;;;;;;;13.35;6.57;;;6.80;99.90;;;;;;5051060;28;20085;-55
2022/10/08 04:06:12;;;;;;;12.98;6.22;;;6.70;99.90;;;;;;5030412;28;20021;-53
2022/10/08 04:08:38;;;;;;;11.43;6.00;;;6.70;99.90;;;;;;5031592;28;20037;-56
2022/10/08 04:11:06;;;;;;;13.43;6.65;;;6.60;99.90;;;;;;5043734;28;20026;-56
2022/10/08 04:13:33;;;;;;;9.38;5.57;;;6.60;99.90;;;;;;5031424;28;20029;-56
2022/10/08 04:16:01;;;;;;;13.52;6.60;;;6.60;99.90;;;;;;5044580;28;20041;-54
2022/10/08 04:18:27;;;;;;;11.00;6.40;;;6.60;99.90;;;;;;5031952;28;20021;-51
2022/10/08 04:20:57;;;;;;;9.52;5.63;;;6.50;99.90;;;;;;5045403;28;20035;-55
2022/10/08 04:23:22;;;;;;;13.13;7.00;;;6.50;99.90;;;;;;5038142;28;20037;-54
2022/10/08 04:25:49;;;;;;;18.35;7.63;;;6.50;99.90;;;;;;5029916;28;20032;-54
2022/10/08 04:28:15;;;;;;;11.82;7.28;;;6.50;99.90;;;;;;5031371;28;20036;-56
2022/10/08 04:30:40;;;;;;;14.43;6.88;;;6.50;99.90;;;;;;5047357;28;20112;-55
2022/10/08 04:33:06;;;;;;;9.98;5.72;;;6.50;99.90;;;;;;5031174;28;20032;-57
2022/10/08 04:35:36;;;;;;;14.00;7.20;;;6.50;99.90;;;;;;5048321;28;20124;-56
2022/10/08 04:38:02;;;;;;;15.45;7.72;;;6.50;99.90;;;;;;5031133;28;20025;-55
2022/10/08 04:40:27;;;;;;;10.52;5.93;;;6.50;99.90;;;;;;5050135;28;20025;-56
2022/10/08 04:42:53;;;;;;;10.27;5.80;;;6.50;99.90;;;;;;5029632;28;20028;-56
2022/10/08 04:45:18;;;;;;;7.60;5.22;;;6.50;99.90;;;;;;5050015;28;20037;-56
2022/10/08 04:47:44;;;;;;;8.77;5.55;;;6.50;99.90;;;;;;5029826;28;20033;-53
2022/10/08 04:50:09;;;;;;;8.98;5.18;;;6.50;99.90;;;;;;5050118;28;20047;-55
2022/10/08 04:52:35;;;;;;;8.07;5.00;;;6.50;99.90;;;;;;5029489;28;20029;-56
2022/10/08 04:55:00;;;;;;;8.15;4.82;;;6.40;99.90;;;;;;5049883;28;20640;-54
2022/10/08 04:57:26;;;;;;;12.25;5.00;;;6.50;99.90;;;;;;5029572;28;20029;-56
2022/10/08 04:59:51;;;;;;;7.80;5.28;;;6.50;99.90;;;;;;5049554;28;20064;-52
2022/10/08 05:02:17;;;;;;;10.20;5.90;;;6.40;99.90;;;;;;5028914;28;20057;-49
2022/10/08 05:04:42;;;;;;;10.60;5.78;;;6.40;99.90;;;;;;5049820;28;20315;-51
2022/10/08 05:07:07;;;;;;;14.93;7.07;;;6.40;99.90;;;;;;5029109;28;20033;-51
2022/10/08 05:09:33;;;;;;;10.43;5.45;;;6.40;99.90;;;;;;5049507;28;20039;-52
2022/10/08 05:11:58;;;;;;;8.70;4.63;;;6.40;99.90;;;;;;5029235;28;20033;-50
2022/10/08 05:14:24;;;;;;;9.80;4.85;;;6.40;99.90;;;;;;5049432;28;20479;-49
2022/10/08 05:16:49;;;;;;;12.32;5.03;;;6.40;99.90;;;;;;5038363;28;20228;-50
2022/10/08 05:19:15;;;;;;;14.52;7.47;;;6.40;99.90;;;;;;5030728;28;20433;-53
2022/10/08 05:21:40;;;;;;;12.70;6.53;;;6.30;99.90;;;;;;5047607;28;20111;-51
2022/10/08 05:24:07;;;;;;;14.18;8.35;;;6.30;99.90;;;;;;5022366;28;20044;-52
2022/10/08 05:26:36;;;;;;;15.48;8.57;;;6.30;99.90;;;;;;5047534;28;20347;-53
2022/10/08 05:29:03;;;;;;;14.35;8.18;;;6.30;99.90;;;;;;5048663;28;20021;-52
2022/10/08 05:31:29;;;;;;;9.65;6.32;;;6.30;99.90;;;;;;5034877;28;20024;-51
2022/10/08 05:33:55;;;;;;;8.50;6.15;;;6.30;99.90;;;;;;5049883;28;20060;-53
2022/10/08 05:36:24;;;;;;;14.75;5.60;;;6.30;99.90;;;;;;5014898;28;20034;-52
2022/10/08 05:38:50;;;;;;;9.82;5.57;;;6.30;99.90;;;;;;5025740;28;20034;-55
2022/10/08 05:41:21;;;;;;;10.98;5.38;;;6.30;99.90;;;;;;5043620;28;20044;-51
2022/10/08 05:43:48;;;;;;;8.45;4.82;;;6.30;99.90;;;;;;5043636;28;20033;-53
2022/10/08 05:46:14;;;;;;;9.25;5.47;;;6.30;99.90;;;;;;5035443;28;20480;-52
2022/10/08 05:48:41;;;;;;;7.88;5.13;;;6.30;99.90;;;;;;5047015;28;20056;-54
2022/10/08 05:51:09;;;;;;;10.25;6.97;;;6.30;99.90;;;;;;5027472;28;20033;-51
2022/10/08 05:53:36;;;;;;;8.20;5.20;;;6.30;99.90;;;;;;5040604;28;20017;-53
2022/10/08 05:56:04;;;;;;;9.23;6.32;;;6.30;99.90;;;;;;5042300;28;20385;-54
2022/10/08 05:58:32;;;;;;;9.00;5.20;;;6.40;99.90;;;;;;5046870;28;20024;-57
2022/10/08 06:00:59;;;;;;;11.35;5.72;;;6.40;99.90;;;;;;5029100;28;20106;-52
2022/10/08 06:03:25;;;;;;;9.20;5.40;;;6.40;99.90;;;;;;5027067;28;20203;-49
2022/10/08 06:05:51;;;;;;;6.55;4.07;;;6.40;99.90;;;;;;5044163;28;20497;-50
2022/10/08 06:08:16;;;;;;;8.50;3.75;;;6.40;99.90;;;;;;5027045;28;20032;-50
2022/10/08 06:10:52;;;;;;;6.28;4.50;;;6.40;99.90;;;;;;5033255;28;20065;-53
2022/10/08 06:13:21;;;;;;;7.63;4.70;;;6.50;99.90;;;;;;5016267;28;20065;-54
2022/10/08 06:16:13;;;;;;;8.57;4.18;;;6.60;99.90;;;;;;5046518;28;20090;-49
2022/10/08 06:18:40;;;;;;;7.28;5.30;;;6.60;99.90;;;;;;5017165;28;20045;-52
2022/10/08 06:21:11;;;;;;;7.05;4.63;;;6.70;99.90;;;;;;5026654;28;20033;-54
2022/10/08 06:23:39;;;;;;;9.32;4.75;;;6.70;99.90;;;;;;5013099;28;20026;-53
2022/10/08 06:26:07;;;;;;;7.20;4.22;;;6.80;99.90;;;;;;5029951;28;20076;-52
2022/10/08 06:28:34;;;;;;;10.65;4.40;;;6.80;99.90;;;;;;5025950;28;20056;-50
2022/10/08 06:31:00;;;;;;;9.35;4.97;;;6.90;99.90;;;;;;5038345;28;20030;-52
2022/10/08 06:33:26;;;;;;;13.52;4.40;;;7.00;99.90;;;;;;5025259;28;20025;-54
2022/10/08 06:35:51;;;;;;;10.23;4.63;;;7.00;99.90;;;;;;5023726;28;20128;-51
2022/10/08 06:38:17;;;;;;;7.63;3.92;;;7.10;99.90;;;;;;5013491;28;20280;-55
2022/10/08 06:40:43;;;;;;;9.63;4.65;;;7.10;99.90;;;;;;5028173;28;20056;-50
2022/10/08 06:43:14;;;;;;;8.35;4.25;;;7.20;99.90;;;;;;5025677;28;20026;-51
2022/10/08 06:45:41;;;;;;;9.10;3.70;;;7.30;99.90;;;;;;5045748;28;20121;-52
2022/10/08 06:48:07;;;;;;;7.32;3.55;;;7.40;99.90;;;;;;5025946;28;20607;-50
2022/10/08 06:50:34;;;;;;;7.03;4.00;;;7.70;99.90;;;;;;5025149;28;20077;-51
2022/10/08 06:52:59;;;;;;;7.88;3.80;;;7.80;99.90;;;;;;5021249;28;20112;-54
2022/10/08 06:55:25;;;;;;;6.55;3.25;;;8.00;99.90;;;;;;5042864;28;20128;-51
2022/10/08 06:57:50;;;;;;;6.40;3.55;;;8.00;99.90;;;;;;5024510;28;20455;-51
2022/10/08 07:00:16;;;;;;;4.90;3.88;;;8.10;99.90;;;;;;5025579;28;20501;-53
2022/10/08 07:02:43;;;;;;;7.25;4.03;;;8.20;99.90;;;;;;5020300;28;20026;-49
2022/10/08 07:05:08;;;;;;;6.70;3.47;;;8.20;99.90;;;;;;5021866;28;20501;-53
2022/10/08 07:07:34;;;;;;;40.22;5.40;;;8.30;99.90;;;;;;5027592;28;20021;-54
2022/10/08 07:09:59;;;;;;;8.77;3.50;;;8.50;99.90;;;;;;5022542;28;20056;-54
2022/10/08 07:12:25;;;;;;;7.53;4.40;;;8.70;99.90;;;;;;5031666;28;20581;-54
2022/10/08 07:14:50;;;;;;;7.05;4.50;;;9.00;99.90;;;;;;5045367;28;20060;-54
2022/10/08 07:17:16;;;;;;;5.53;3.72;;;9.20;99.90;;;;;;5034846;28;20060;-53
2022/10/08 07:19:41;;;;;;;7.25;4.13;;;9.50;99.90;;;;;;5027132;28;20033;-51
2022/10/08 07:22:06;;;;;;;7.53;4.95;;;9.80;99.90;;;;;;5043495;28;20035;-52
2022/10/08 07:24:32;;;;;;;6.95;5.10;;;10.10;99.90;;;;;;5023516;28;20092;-49
2022/10/08 07:26:57;;;;;;;9.43;4.68;;;10.40;99.90;;;;;;5043792;28;20068;-52
2022/10/08 07:29:26;;;;;;;7.00;4.68;;;10.60;99.90;;;;;;5045911;28;20108;-50
2022/10/08 07:31:52;;;;;;;6.55;5.15;;;10.70;99.90;;;;;;5030454;28;20148;-50
2022/10/08 07:34:18;;;;;;;9.02;5.30;;;10.70;99.90;;;;;;5046190;28;20108;-47
2022/10/08 07:36:43;;;;;;;9.13;5.72;;;10.80;99.90;;;;;;5030085;28;20502;-50
2022/10/08 07:39:13;;;;;;;7.43;4.72;;;10.80;99.90;;;;;;5046291;28;20025;-48
2022/10/08 07:41:39;;;;;;;8.65;5.47;;;10.80;99.90;;;;;;5028353;28;20025;-52
2022/10/08 07:44:05;;;;;;;8.38;5.32;;;10.90;99.90;;;;;;5046013;28;20392;-52
2022/10/08 07:46:34;;;;;;;6.28;4.30;;;11.00;99.90;;;;;;5027644;28;20493;-50
2022/10/08 07:49:00;;;;;;;6.63;4.55;;;11.30;99.90;;;;;;5046118;28;20060;-48
2022/10/08 07:51:27;;;;;;;6.07;4.47;;;11.50;99.90;;;;;;5026929;28;20180;-49
2022/10/08 07:53:53;;;;;;;6.05;4.70;;;11.70;99.90;;;;;;5046078;28;20051;-51
2022/10/08 07:56:20;;;;;;;6.18;4.50;;;11.90;99.90;;;;;;5025432;28;20026;-48
2022/10/08 07:58:46;;;;;;;7.47;4.95;;;12.40;99.90;;;;;;5045549;28;20036;-49
2022/10/08 08:01:14;;;;;;;7.72;4.35;;;12.70;99.90;;;;;;4998190;28;1027047;-48
2022/10/08 08:03:40;;;;;;;8.32;4.43;;;12.90;99.90;;;;;;5007107;28;20033;-49
2022/10/08 08:06:14;;;;;;;5.47;3.85;;;13.20;99.90;;;;;;5045414;28;20165;-53
2022/10/08 08:08:42;;;;;;;6.68;4.18;;;13.30;99.90;;;;;;5046813;28;20033;-47
2022/10/08 08:11:11;;;;;;;5.57;3.60;;;13.40;99.90;;;;;;5026803;28;20033;-49
2022/10/08 08:13:38;;;;;;;5.03;3.88;;;13.60;99.90;;;;;;5025420;28;20105;-47
2022/10/08 08:16:09;;;;;;;5.25;3.80;;;13.70;99.90;;;;;;5049753;28;20516;-50
2022/10/08 08:18:38;;;;;;;6.35;4.10;;;13.70;99.90;;;;;;5027802;28;20293;-47
2022/10/08 08:21:15;;;;;;;9.40;4.13;;;13.80;99.90;;;;;;5033435;28;20431;-50
2022/10/08 08:23:43;;;;;;;6.47;4.07;;;13.90;99.90;;;;;;5032787;28;20053;-46
2022/10/08 08:26:12;;;;;;;8.63;3.97;;;14.10;99.90;;;;;;5030494;28;20060;-48
2022/10/08 08:28:38;;;;;;;4.75;3.35;;;14.40;99.90;;;;;;5028410;28;20044;-49
2022/10/08 08:31:11;;;;;;;5.75;3.75;;;14.70;99.90;;;;;;5049273;28;20531;-47
2022/10/08 08:33:37;;;;;;;6.22;3.70;;;14.90;99.90;;;;;;5028258;28;20385;-54
2022/10/08 08:36:03;;;;;;;5.80;3.80;;;15.20;99.90;;;;;;5048973;28;20029;-48
2022/10/08 08:38:29;;;;;;;7.05;3.53;;;15.40;99.90;;;;;;5028408;28;20511;-48
2022/10/08 08:41:04;;;;;;;13.13;4.45;;;15.60;99.90;;;;;;5049371;28;20120;-49
2022/10/08 08:43:29;;;;;;;7.72;3.75;;;15.80;99.90;;;;;;5026001;28;20033;-51
2022/10/08 08:45:56;;;;;;;5.63;3.60;;;16.00;99.90;;;;;;5049168;28;20040;-49
2022/10/08 08:48:24;;;;;;;5.75;3.08;;;16.30;99.90;;;;;;5028302;28;20033;-47
2022/10/08 08:50:54;;;;;;;4.05;2.38;;;16.60;99.90;;;;;;5049424;28;20021;-50
2022/10/08 08:53:19;;;;;;;6.72;3.10;;;16.80;99.90;;;;;;5027804;28;20029;-48
2022/10/08 08:55:49;;;;;;;6.32;2.90;;;17.00;99.90;;;;;;5048774;28;20051;-48
2022/10/08 08:58:34;;;;;;;5.00;2.90;;;17.30;99.90;;;;;;5027776;28;20037;-51
2022/10/08 09:01:08;;;;;;;5.43;3.28;;;17.50;92.30;;;;;;5021086;28;20048;-59
2022/10/08 09:03:39;;;;;;;5.18;3.03;;;17.60;92.90;;;;;;5047491;28;20043;-53
2022/10/08 09:06:11;;;;;;;4.45;2.40;;;17.70;96.20;;;;;;5009951;28;20247;-55
2022/10/08 09:08:58;;;;;;;4.32;1.88;;;17.80;93.50;;;;;;5029343;28;20033;-51
2022/10/08 09:11:24;;;;;;;4.28;2.20;;;17.90;80.30;;;;;;5024839;28;20244;-48
2022/10/08 09:14:02;;;;;;;6.40;2.70;;;17.90;88.70;;;;;;5046772;28;20128;-50
2022/10/08 09:16:27;;;;;;;7.70;2.50;;;18.00;85.70;;;;;;5029985;28;20124;-51
2022/10/08 09:18:53;;;;;;;3.83;2.10;;;18.20;86.40;;;;;;5029140;28;20116;-52
2022/10/08 09:21:19;;;;;;;6.50;2.72;;;18.40;84.40;;;;;;5048241;28;20040;-50
2022/10/08 09:23:46;;;;;;;7.50;2.88;;;18.50;80.30;;;;;;5019995;28;20079;-55
2022/10/08 09:26:32;;;;;;;4.10;2.00;;;18.60;73.50;;;;;;5047436;28;20029;-54
2022/10/08 09:28:59;;;;;;;;;;;18.70;68.10;;;;;;5049451;28;20583;-50
2022/10/08 09:31:46;;;;;;;6.38;1.98;;;18.70;58.00;;;;;;5029580;28;19915;-52
2022/10/08 09:34:12;;;;;;;3.45;1.48;;;18.60;63.30;;;;;;5028961;28;20029;-52
2022/10/08 09:36:51;;;;;;;8.15;2.10;;;18.60;70.60;;;;;;5046050;28;20055;-49
2022/10/08 09:39:23;;;;;;;7.25;2.20;;;18.50;68.70;;;;;;5048328;28;20040;-49
2022/10/08 09:42:13;;;;;;;9.02;2.42;;;18.40;65.70;;;;;;5029191;28;20033;-54
2022/10/08 09:44:47;;;;;;;5.03;2.17;;;18.40;64.30;;;;;;5035400;28;20119;-49
2022/10/08 09:47:19;;;;;;;6.85;2.13;;;18.50;65.90;;;;;;5018171;28;20170;-48
2022/10/08 09:49:51;;;;;;;7.10;1.95;;;18.60;66.40;;;;;;5048657;28;20029;-51
2022/10/08 09:52:25;;;;;;;7.22;1.98;;;18.70;65.70;;;;;;5018584;28;20421;-49
2022/10/08 09:54:59;;;;;;;5.03;1.88;;;18.80;63.70;;;;;;5048478;28;20032;-50
2022/10/08 09:57:24;;;;;;;9.07;2.45;;;18.70;62.90;;;;;;5020208;28;20143;-50
2022/10/08 09:59:53;;;;;;;5.20;2.00;;;18.70;63.10;;;;;;5048283;28;20075;-52
2022/10/08 10:02:39;;;;;;;2.80;1.88;;;18.60;61.90;;;;;;5026553;28;20032;-52
2022/10/08 10:05:18;;;;;;;5.97;2.38;;;18.80;57.60;;;;;;5028380;28;20034;-51
2022/10/08 10:07:44;;;;;;;6.88;2.50;;;18.80;60.50;;;;;;5015847;28;20045;-55
2022/10/08 10:10:27;;;;;;;7.32;2.25;;;18.80;59.60;;;;;;5047631;28;20095;-51
2022/10/08 10:13:05;;;;;;;6.43;2.28;;;18.80;58.10;;;;;;5016399;28;20401;-53
2022/10/08 10:15:37;;;;;;;5.70;1.98;;;18.80;58.10;;;;;;5008273;28;20033;-53
2022/10/08 10:18:15;;;;;;;4.90;1.88;;;18.80;58.80;;;;;;5028862;28;20037;-50
2022/10/08 10:20:46;;;;;;;4.95;1.80;;;18.80;55.80;;;;;;5008500;28;20041;-50
2022/10/08 10:23:20;;;;;;;7.45;2.60;;;18.80;58.60;;;;;;5022714;28;20041;-51
2022/10/08 10:26:09;;;;;;;5.65;2.50;;;18.80;58.00;;;;;;5008359;28;20036;-52
2022/10/08 10:28:50;;;;;;;5.32;2.20;;;18.80;57.90;;;;;;5021350;28;20037;-52
2022/10/08 10:31:24;;;;;;;6.70;2.35;;;19.00;56.80;;;;;;5012218;28;20244;-55
2022/10/08 10:34:18;;;;;;;4.28;2.33;;;19.00;58.20;;;;;;5023695;28;20037;-54
2022/10/08 10:36:59;;;;;;;7.10;2.22;;;19.00;54.30;;;;;;5003650;28;20414;-54
2022/10/08 10:39:32;;;;;;;6.32;1.67;;;18.90;57.30;;;;;;5007938;28;20088;-50
2022/10/08 10:42:17;;;;;;;8.48;2.33;;;19.00;56.40;;;;;;5009851;28;20038;-55
2022/10/08 10:45:13;;;;;;;7.53;2.20;;;18.90;54.60;;;;;;5047442;28;20112;-51
2022/10/08 10:47:39;;;;;;;9.20;2.75;;;18.80;54.60;;;;;;5020524;28;20028;-52
2022/10/08 10:50:10;;;;;;;6.97;2.20;;;18.70;54.70;;;;;;5047543;28;20124;-53
2022/10/08 10:52:51;;;;;;;3.95;1.90;;;18.70;56.40;;;;;;5019190;28;20083;-54
2022/10/08 10:55:34;;;;;;;4.35;1.90;;;18.80;55.50;;;;;;5047289;28;20029;-51
2022/10/08 10:58:11;;;;;;;7.05;2.22;;;18.70;54.30;;;;;;5025149;28;20400;-54
2022/10/08 11:01:18;;;;;;;6.32;1.95;;;18.60;55.70;;;;;;5012382;28;20103;-51
2022/10/08 11:04:12;;;;;;;4.57;2.03;;;18.30;54.90;;;;;;5027983;28;20025;-55
2022/10/08 11:06:44;;;;;;;4.32;1.92;;;18.10;57.50;;;;;;5000203;28;20436;-53
2022/10/08 11:09:52;;;;;;;5.30;2.00;;;17.90;59.00;;;;;;5024703;28;20147;-51
2022/10/08 11:12:45;;;;;;;2.35;1.50;;;17.70;59.00;;;;;;5007079;28;20404;-52
2022/10/08 11:15:24;;;;;;;6.40;2.17;;;17.50;60.70;;;;;;5046925;28;20032;-51
2022/10/08 11:18:02;;;;;;;7.57;2.40;;;17.40;61.40;;;;;;5021374;28;20037;-54
2022/10/08 11:20:50;;;;;;;5.53;2.05;;;17.30;62.10;;;;;;5007625;28;20030;-54
2022/10/08 11:23:38;;;;;;;4.25;2.30;;;17.20;62.40;;;;;;5021021;28;20048;-51
2022/10/08 11:26:24;;;;;;;6.07;1.92;;;17.20;62.90;;;;;;5007491;28;20400;-53
2022/10/08 11:29:14;;;;;;;6.45;1.98;;;17.30;63.00;;;;;;5021444;28;20157;-52
2022/10/08 11:31:49;;;;;;;3.00;1.70;;;17.40;62.20;;;;;;5046295;28;20055;-51
2022/10/08 11:34:23;;;;;;;5.60;2.08;;;17.50;61.90;;;;;;5023938;28;20040;-60
2022/10/08 11:37:00;;;;;;;5.22;2.40;;;17.50;61.00;;;;;;5046466;28;20051;-60
2022/10/08 11:39:35;;;;;;;5.78;1.90;;;17.60;60.50;;;;;;5046912;28;20123;-59
2022/10/08 11:42:18;;;;;;;10.77;2.08;;;17.60;60.50;;;;;;5006753;28;20026;-59
2022/10/08 11:44:44;;;;;;;8.18;2.20;;;17.60;60.60;;;;;;5047032;28;20516;-60
2022/10/08 11:47:40;;;;;;;3.67;1.70;;;17.60;60.80;;;;;;5027271;28;20021;-59
2022/10/08 11:50:24;;;;;;;2.83;1.60;;;17.50;60.50;;;;;;5049513;28;20017;-58
2022/10/08 11:52:52;;;;;;;8.82;2.67;;;17.40;60.70;;;;;;5023330;28;20033;-59
2022/10/08 11:55:30;;;;;;;6.95;2.42;;;17.20;61.70;;;;;;5050671;28;20081;-59
2022/10/08 11:58:16;;;;;;;3.50;1.70;;;17.10;62.20;;;;;;5036425;28;20510;-59
2022/10/08 12:00:46;;;;;;;3.43;1.87;;;17.00;62.90;;;;;;5017260;28;20086;-60
2022/10/08 12:03:26;;;;;;;3.95;1.70;;;17.00;63.40;;;;;;5039337;28;20152;-59
2022/10/08 12:05:54;;;;;;;6.07;2.15;;;16.90;62.90;;;;;;5050213;28;20029;-59
2022/10/08 12:08:50;;;;;;;5.70;2.00;;;16.90;63.90;;;;;;5028623;28;20091;-59
2022/10/08 12:11:30;;;;;;;3.90;2.25;;;16.80;64.80;;;;;;5048745;28;20033;-59
2022/10/08 12:14:11;;;;;;;4.43;2.00;;;16.70;66.00;;;;;;5029697;28;20407;-60
2022/10/08 12:16:46;;;;;;;5.50;1.88;;;16.60;67.20;;;;;;5049733;28;20037;-60
2022/10/08 12:19:33;;;;;;;5.40;1.85;;;16.40;70.00;;;;;;5029392;28;20144;-59
2022/10/08 12:22:00;;;;;;;5.65;1.98;;;16.40;72.50;;;;;;5049693;28;20116;-59
2022/10/08 12:24:38;;;;;;;4.90;2.30;;;16.30;72.30;;;;;;5025266;28;20038;-59
2022/10/08 12:27:15;;;;;;;6.03;2.40;;;16.40;75.60;;;;;;5049504;28;20057;-59
2022/10/08 12:29:58;;;;;;;4.82;2.20;;;16.40;74.90;;;;;;5010629;28;20037;-59
2022/10/08 12:32:29;;;;;;;6.75;2.50;;;16.40;76.00;;;;;;5045196;28;20032;-59
2022/10/08 12:34:55;;;;;;;6.20;2.13;;;16.50;75.30;;;;;;5030453;28;20025;-59
2022/10/08 12:37:37;;;;;;;6.50;2.72;;;16.50;77.00;;;;;;5044665;28;20036;-59
2022/10/08 12:40:15;;;;;;;6.38;2.60;;;16.40;80.20;;;;;;5030221;28;20021;-59
2022/10/08 12:42:41;;;;;;;7.65;2.17;;;16.40;81.00;;;;;;5012857;28;20367;-60
2022/10/08 12:45:21;;;;;;;6.20;2.20;;;16.40;80.00;;;;;;5030349;28;20040;-58
2022/10/08 12:48:38;;;;;;;3.42;2.03;;;16.50;81.50;;;;;;5026308;28;20057;-59
2022/10/08 12:51:29;;;;;;;3.88;2.17;;;16.60;82.60;;;;;;5010105;28;20076;-59
2022/10/08 12:53:55;;;;;;;5.78;2.53;;;16.70;80.50;;;;;;5022852;28;20033;-59
2022/10/08 12:56:27;;;;;;;7.38;2.38;;;16.70;80.10;;;;;;5049980;28;20040;-59
2022/10/08 12:58:55;;;;;;;4.75;2.53;;;16.80;80.00;;;;;;5029073;28;20152;-59
2022/10/08 13:01:21;;;;;;;8.20;3.03;;;16.80;79.90;;;;;;5041233;28;20071;-59
2022/10/08 13:04:06;;;;;;;5.30;2.70;;;16.70;80.20;;;;;;5035378;28;20045;-59
2022/10/08 13:06:31;;;;;;;7.05;2.88;;;16.80;81.60;;;;;;5010879;28;20032;-59
2022/10/08 13:08:57;;;;;;;6.18;2.50;;;16.80;81.00;;;;;;5033612;28;20038;-59
2022/10/08 13:11:22;;;;;;;6.85;3.20;;;16.80;80.90;;;;;;5049749;28;20404;-59
2022/10/08 13:13:49;;;;;;;5.15;2.60;;;16.80;81.20;;;;;;5029316;28;20037;-59